Time;durP1;ratioP1;P1;durP2;ratioP2;P2;SDS_P1;SDS_P2;PMS_P1;PMS_P2;Temp;Humidity;BMP_temperature;BMP_pressure;BME280_temperature;BME280_humidity;BME280_pressure;Samples;Min_cycle;Max_cycle;Signal;HPM_P1;HPM_P2
2020/12/21 00:07:45;;;;;;;1.27;0.70;;;11.50;66.50;;;;;;20743446;28;20038;-76
2020/12/21 00:17:46;;;;;;;0.52;0.50;;;11.40;66.50;;;;;;20732593;28;20396;-76
2020/12/21 00:27:47;;;;;;;1.40;0.90;;;11.40;66.50;;;;;;20770485;28;20295;-75
2020/12/21 00:37:47;;;;;;;0.93;0.52;;;11.40;66.50;;;;;;20741867;28;20033;-77
2020/12/21 00:47:50;;;;;;;1.08;0.70;;;11.50;66.50;;;;;;20749965;28;20022;-76
2020/12/21 00:57:51;;;;;;;0.30;0.30;;;11.50;66.60;;;;;;20761059;28;20045;-76
2020/12/21 01:07:53;;;;;;;0.50;0.50;;;11.40;66.50;;;;;;20734395;28;20065;-76
2020/12/21 01:17:53;;;;;;;0.68;0.60;;;11.40;66.50;;;;;;20723295;28;20771;-75
2020/12/21 01:27:54;;;;;;;0.63;0.57;;;11.50;66.60;;;;;;20750819;28;20042;-76
2020/12/21 01:37:55;;;;;;;0.67;0.60;;;11.50;66.60;;;;;;20775746;28;20534;-77
2020/12/21 01:47:56;;;;;;;1.52;0.63;;;11.50;66.70;;;;;;20741065;28;20375;-77
2020/12/21 01:57:56;;;;;;;5.20;0.80;;;11.50;66.70;;;;;;20730491;28;20041;-76
2020/12/21 02:07:58;;;;;;;2.63;1.05;;;11.40;66.60;;;;;;20741136;28;20043;-78
2020/12/21 02:17:59;;;;;;;1.38;0.77;;;11.40;66.60;;;;;;20732766;28;20117;-77
2020/12/21 02:28:00;;;;;;;1.33;0.60;;;11.40;66.70;;;;;;20766284;28;20076;-76
2020/12/21 02:38:06;;;;;;;1.35;0.57;;;11.40;66.70;;;;;;20769839;28;20033;-76
2020/12/21 02:48:07;;;;;;;1.60;1.00;;;11.40;66.60;;;;;;20750897;28;20426;-78
2020/12/21 02:58:07;;;;;;;0.50;0.45;;;11.40;66.70;;;;;;20772180;28;20116;-76
2020/12/21 03:08:08;;;;;;;1.33;0.82;;;11.40;66.60;;;;;;20731749;28;20141;-76
2020/12/21 03:18:11;;;;;;;1.17;0.55;;;11.40;66.60;;;;;;20740819;28;20117;-75
2020/12/21 03:28:11;;;;;;;0.75;0.40;;;11.40;66.60;;;;;;20743616;28;20128;-76
2020/12/21 03:38:12;;;;;;;0.40;0.40;;;11.40;66.50;;;;;;20777624;28;20488;-76
2020/12/21 03:48:13;;;;;;;1.13;0.90;;;11.40;66.60;;;;;;20724673;28;20033;-76
2020/12/21 03:58:14;;;;;;;1.23;0.60;;;11.40;67.20;;;;;;20746735;28;20065;-75
2020/12/21 04:08:15;;;;;;;0.68;0.68;;;11.40;66.60;;;;;;20746331;28;20137;-77
2020/12/21 04:18:17;;;;;;;0.85;0.60;;;11.40;66.50;;;;;;20750130;28;20058;-77
2020/12/21 04:28:17;;;;;;;3.97;1.08;;;11.40;66.50;;;;;;20749753;28;20468;-76
2020/12/21 04:38:20;;;;;;;2.05;0.52;;;11.40;66.60;;;;;;20763068;28;20034;-77
2020/12/21 04:48:24;;;;;;;0.35;0.32;;;11.30;66.60;;;;;;20768234;28;20085;-76
2020/12/21 04:58:24;;;;;;;1.58;0.88;;;11.30;66.60;;;;;;20726673;28;20037;-77
2020/12/21 05:08:25;;;;;;;0.90;0.47;;;11.30;66.50;;;;;;20764134;28;20108;-78
2020/12/21 05:18:28;;;;;;;1.33;0.60;;;11.40;66.90;;;;;;20742588;28;20100;-77
2020/12/21 05:28:36;;;;;;;0.63;0.60;;;11.50;66.80;;;;;;20759406;28;20045;-77
2020/12/21 05:38:37;;;;;;;0.80;0.50;;;11.70;66.50;;;;;;20738573;28;20049;-76
2020/12/21 05:48:42;;;;;;;1.67;1.08;;;11.90;66.10;;;;;;20753661;28;20041;-78
2020/12/21 05:58:43;;;;;;;0.70;0.65;;;12.10;65.40;;;;;;20751731;28;20101;-77
2020/12/21 06:08:45;;;;;;;0.95;0.50;;;12.30;64.70;;;;;;20774190;28;20380;-76
2020/12/21 06:18:58;;;;;;;2.25;0.70;;;12.40;64.10;;;;;;20753976;28;20033;-77
2020/12/21 06:29:00;;;;;;;0.28;0.28;;;12.50;63.70;;;;;;20778800;28;20125;-77
2020/12/21 06:39:01;;;;;;;1.00;0.88;;;12.40;63.10;;;;;;20731586;28;20057;-77
2020/12/21 06:49:12;;;;;;;1.10;0.83;;;12.30;62.90;;;;;;20764681;28;20042;-76
2020/12/21 06:59:14;;;;;;;0.57;0.43;;;12.10;63.00;;;;;;20750913;28;20320;-76
2020/12/21 07:09:22;;;;;;;0.70;0.68;;;12.00;63.40;;;;;;20730848;28;20045;-74
2020/12/21 07:19:23;;;;;;;1.02;0.90;;;12.00;63.90;;;;;;20727397;28;20485;-74
2020/12/21 07:29:23;;;;;;;1.05;0.57;;;11.80;64.10;;;;;;20730566;28;20091;-74
2020/12/21 07:39:24;;;;;;;0.70;0.43;;;11.70;64.50;;;;;;20761569;28;20040;-74
2020/12/21 07:49:26;;;;;;;0.77;0.60;;;11.70;64.80;;;;;;20729602;28;20300;-76
2020/12/21 07:59:27;;;;;;;1.13;0.80;;;11.60;65.00;;;;;;20747479;28;20048;-74
2020/12/21 08:09:28;;;;;;;0.63;0.45;;;11.60;65.10;;;;;;20760589;28;20042;-75
2020/12/21 08:19:29;;;;;;;0.52;0.22;;;11.60;65.30;;;;;;20727833;28;20046;-76
2020/12/21 08:29:30;;;;;;;1.55;0.65;;;11.60;65.30;;;;;;20734941;28;20053;-72
2020/12/21 08:39:30;;;;;;;1.43;0.60;;;11.60;65.30;;;;;;20748801;28;20505;-71
2020/12/21 08:49:33;;;;;;;1.38;0.63;;;11.60;65.30;;;;;;20757112;28;20303;-75
2020/12/21 08:59:36;;;;;;;1.95;0.90;;;11.70;65.80;;;;;;20726502;28;20103;-76
2020/12/21 09:09:38;;;;;;;1.10;0.50;;;11.70;65.10;;;;;;21171136;23;20038;-73
2020/12/21 09:19:39;;;;;;;0.20;0.20;;;11.70;65.20;;;;;;20733793;28;20140;-80
2020/12/21 09:29:39;;;;;;;1.30;0.63;;;11.60;65.10;;;;;;20742757;28;20399;-79
2020/12/21 09:39:40;;;;;;;0.65;0.50;;;11.60;65.30;;;;;;20747778;28;20510;-79
2020/12/21 09:49:40;;;;;;;2.40;0.40;;;11.60;65.30;;;;;;20735143;28;20045;-79
2020/12/21 09:59:41;;;;;;;1.10;0.70;;;11.60;65.30;;;;;;20722758;28;20037;-79
2020/12/21 10:09:46;;;;;;;0.98;0.43;;;11.60;65.40;;;;;;20735914;28;20053;-83
2020/12/21 10:19:48;;;;;;;2.92;0.63;;;11.70;65.50;;;;;;20760553;28;20040;-71
2020/12/21 10:29:50;;;;;;;1.52;0.60;;;11.70;65.80;;;;;;20766460;28;20042;-70
2020/12/21 10:39:50;;;;;;;0.20;0.20;;;11.70;65.30;;;;;;20728776;28;20030;-71
2020/12/21 10:49:52;;;;;;;0.70;0.60;;;11.70;65.40;;;;;;20764829;28;20079;-70
2020/12/21 10:59:53;;;;;;;2.35;1.38;;;11.80;66.00;;;;;;20762292;28;20029;-73
2020/12/21 11:09:53;;;;;;;4.57;0.93;;;11.90;66.00;;;;;;20767895;28;20045;-73
2020/12/21 11:19:54;;;;;;;2.75;0.90;;;11.90;65.90;;;;;;20752602;28;20057;-75
2020/12/21 11:29:55;;;;;;;4.85;1.48;;;11.90;65.90;;;;;;20769270;28;20033;-73
2020/12/21 11:39:57;;;;;;;2.05;0.80;;;11.80;65.90;;;;;;20764819;28;20034;-71
2020/12/21 11:49:58;;;;;;;0.70;0.47;;;11.80;65.70;;;;;;20747711;28;20381;-71
2020/12/21 11:59:58;;;;;;;1.80;0.60;;;11.70;65.80;;;;;;20762612;28;20083;-73
2020/12/21 12:09:59;;;;;;;1.23;0.85;;;11.70;65.90;;;;;;20743722;28;20137;-74
2020/12/21 12:19:59;;;;;;;0.80;0.47;;;11.70;65.90;;;;;;20735739;28;20088;-72
2020/12/21 12:30:00;;;;;;;1.30;1.02;;;11.70;66.00;;;;;;20738008;28;20037;-73
2020/12/21 12:40:01;;;;;;;0.32;0.32;;;11.70;66.10;;;;;;20746865;28;20109;-72
2020/12/21 12:50:03;;;;;;;1.27;0.65;;;11.60;65.90;;;;;;20745244;28;20042;-76
2020/12/21 13:00:05;;;;;;;2.72;0.82;;;11.60;66.20;;;;;;20761865;28;20034;-71
2020/12/21 13:10:06;;;;;;;2.58;0.40;;;11.60;66.30;;;;;;20769994;28;20408;-72
2020/12/21 13:20:07;;;;;;;1.48;0.35;;;11.60;66.30;;;;;;20758155;28;20041;-71
2020/12/21 13:30:07;;;;;;;0.70;0.40;;;11.60;66.40;;;;;;20748298;28;20038;-71
2020/12/21 13:40:08;;;;;;;1.92;0.60;;;11.70;66.50;;;;;;20756767;28;20034;-71
2020/12/21 13:50:09;;;;;;;0.50;0.32;;;11.70;66.70;;;;;;20785002;28;20041;-75
2020/12/21 14:00:09;;;;;;;0.32;0.28;;;11.70;66.20;;;;;;20763252;28;20060;-73
2020/12/21 14:10:10;;;;;;;1.17;0.32;;;11.60;66.20;;;;;;20760235;28;20502;-72
2020/12/21 14:20:10;;;;;;;1.05;0.75;;;11.60;66.30;;;;;;20747510;28;20030;-73
2020/12/21 14:30:11;;;;;;;0.90;0.40;;;11.60;66.40;;;;;;20775973;28;20065;-77
2020/12/21 14:40:12;;;;;;;2.15;0.50;;;11.60;66.40;;;;;;20738157;28;20041;-85
2020/12/21 14:50:12;;;;;;;1.85;0.98;;;11.60;66.40;;;;;;20767544;28;20104;-79
2020/12/21 15:00:13;;;;;;;0.50;0.28;;;11.60;66.50;;;;;;20748244;28;20076;-74
2020/12/21 15:10:14;;;;;;;0.82;0.22;;;11.60;66.50;;;;;;20755561;28;20132;-75
2020/12/21 15:20:14;;;;;;;1.05;0.38;;;11.60;66.50;;;;;;20765072;28;20115;-76
2020/12/21 15:30:15;;;;;;;0.73;0.38;;;11.50;66.50;;;;;;20767170;28;20034;-75
2020/12/21 15:40:20;;;;;;;0.15;0.15;;;11.50;66.40;;;;;;20719706;28;20036;-74
2020/12/21 15:50:21;;;;;;;0.32;0.32;;;11.50;66.50;;;;;;20772356;28;20037;-71
2020/12/21 16:00:21;;;;;;;0.73;0.40;;;11.50;66.40;;;;;;20744048;28;20087;-72
2020/12/21 16:10:22;;;;;;;0.10;0.10;;;11.50;66.50;;;;;;20730112;28;20037;-71
2020/12/21 16:20:23;;;;;;;0.10;0.10;;;11.50;67.10;;;;;;20709299;28;20091;-74
2020/12/21 16:30:23;;;;;;;1.17;0.30;;;11.50;66.40;;;;;;20737615;28;20034;-70
2020/12/21 16:40:24;;;;;;;1.40;0.40;;;11.50;67.10;;;;;;20727843;28;20068;-69
2020/12/21 16:50:24;;;;;;;0.90;0.50;;;11.50;66.40;;;;;;20770117;28;20095;-70
2020/12/21 17:00:26;;;;;;;0.20;0.20;;;11.50;66.50;;;;;;20755161;28;20049;-72
2020/12/21 17:10:27;;;;;;;1.42;0.47;;;11.50;66.40;;;;;;20728501;28;20301;-76
2020/12/21 17:20:27;;;;;;;0.60;0.30;;;11.50;66.40;;;;;;20767514;28;20039;-75
2020/12/21 17:30:28;;;;;;;0.47;0.33;;;11.50;66.80;;;;;;20704236;28;20484;-74
2020/12/21 17:40:28;;;;;;;0.30;0.30;;;11.70;66.40;;;;;;20755456;28;20283;-72
2020/12/21 17:50:29;;;;;;;1.88;0.80;;;11.60;66.40;;;;;;20766118;28;20075;-68
2020/12/21 18:00:30;;;;;;;0.43;0.30;;;11.50;66.50;;;;;;20755949;28;20038;-73
2020/12/21 18:10:30;;;;;;;0.70;0.35;;;11.50;66.70;;;;;;20728785;28;20806;-72
2020/12/21 18:20:31;;;;;;;0.35;0.22;;;11.50;66.80;;;;;;20739775;28;20041;-73
2020/12/21 18:30:33;;;;;;;1.75;0.43;;;11.40;66.80;;;;;;20736364;28;20124;-73
2020/12/21 18:40:33;;;;;;;0.40;0.40;;;11.40;66.80;;;;;;20747621;28;20507;-72
2020/12/21 18:50:34;;;;;;;0.47;0.40;;;11.40;66.80;;;;;;20771512;28;20037;-72
2020/12/21 19:00:34;;;;;;;0.75;0.40;;;11.50;67.00;;;;;;20763944;28;20041;-72
2020/12/21 19:10:35;;;;;;;0.60;0.30;;;11.40;66.90;;;;;;20740661;28;20517;-73
2020/12/21 19:20:35;;;;;;;0.50;0.22;;;11.40;66.90;;;;;;20722930;28;20072;-71
2020/12/21 19:30:36;;;;;;;0.20;0.20;;;11.50;67.00;;;;;;20732477;28;20048;-72
2020/12/21 19:40:37;;;;;;;0.22;0.10;;;11.40;67.00;;;;;;20729409;28;20041;-72
2020/12/21 19:50:37;;;;;;;0.50;0.50;;;11.40;67.00;;;;;;20739804;28;20129;-71
2020/12/21 20:00:38;;;;;;;0.52;0.35;;;11.40;66.90;;;;;;20745336;28;20033;-71
2020/12/21 20:10:38;;;;;;;0.50;0.22;;;11.40;67.00;;;;;;20742367;28;521294;-70
2020/12/21 20:20:39;;;;;;;2.05;0.65;;;11.40;67.00;;;;;;20745498;28;20064;-69
2020/12/21 20:30:40;;;;;;;0.50;0.50;;;11.40;67.10;;;;;;20753364;28;20456;-70
2020/12/21 20:40:40;;;;;;;0.20;0.20;;;11.40;67.00;;;;;;20765475;28;20045;-71
2020/12/21 20:50:41;;;;;;;0.57;0.33;;;11.40;67.10;;;;;;20716173;28;20037;-70
2020/12/21 21:00:42;;;;;;;0.80;0.30;;;11.40;67.10;;;;;;20725980;28;20281;-71
2020/12/21 21:10:43;;;;;;;0.40;0.25;;;11.40;67.10;;;;;;20712130;28;20124;-71
2020/12/21 21:20:43;;;;;;;0.20;0.15;;;11.40;67.10;;;;;;20717466;28;20034;-71
2020/12/21 21:30:44;;;;;;;0.32;0.30;;;11.40;67.20;;;;;;20730870;28;20559;-71
2020/12/21 21:40:44;;;;;;;0.95;0.40;;;11.30;67.20;;;;;;20739433;28;20030;-71
2020/12/21 21:50:45;;;;;;;0.15;0.15;;;11.40;67.20;;;;;;20706660;28;20048;-71
2020/12/21 22:00:46;;;;;;;0.20;0.20;;;11.30;67.20;;;;;;20701713;28;20026;-70
2020/12/21 22:10:46;;;;;;;0.55;0.40;;;11.30;67.20;;;;;;20727000;28;20129;-71
2020/12/21 22:20:47;;;;;;;0.30;0.25;;;11.30;67.20;;;;;;20699699;28;20085;-72
2020/12/21 22:30:48;;;;;;;0.10;0.10;;;11.40;67.20;;;;;;20699420;28;20038;-71
2020/12/21 22:40:48;;;;;;;0.27;0.20;;;11.30;67.20;;;;;;20728849;28;20430;-71
2020/12/21 22:50:49;;;;;;;2.67;0.37;;;11.30;67.20;;;;;;20702238;28;20297;-71
2020/12/21 23:00:50;;;;;;;0.20;0.20;;;11.30;67.20;;;;;;20708392;28;20853;-72
2020/12/21 23:10:50;;;;;;;0.63;0.30;;;11.30;67.30;;;;;;20697208;28;20384;-71
2020/12/21 23:20:51;;;;;;;0.20;0.20;;;11.30;67.30;;;;;;20721655;28;20030;-71
2020/12/21 23:30:51;;;;;;;1.00;0.22;;;11.30;67.20;;;;;;20734131;28;20169;-72
2020/12/21 23:40:52;;;;;;;0.15;0.15;;;11.30;67.30;;;;;;20744816;28;20408;-71
2020/12/21 23:50:52;;;;;;;1.00;0.17;;;11.30;67.30;;;;;;20748451;28;20125;-71
